createdAt,value
2017-08-15T00:00:19.675Z,91.60
2017-08-15T00:02:47.570Z,91.80
2017-08-15T00:05:15.145Z,91.90
2017-08-15T00:07:42.728Z,92.00
2017-08-15T00:10:10.325Z,92.10
2017-08-15T00:12:37.911Z,92.30
2017-08-15T00:15:05.514Z,92.20
2017-08-15T00:17:33.854Z,92.50
2017-08-15T00:20:01.724Z,92.80
2017-08-15T00:22:29.348Z,92.50
2017-08-15T00:24:57.159Z,92.70
2017-08-15T00:27:24.756Z,92.70
2017-08-15T00:29:52.330Z,92.60
2017-08-15T00:32:19.950Z,92.40
2017-08-15T00:34:47.539Z,92.40
2017-08-15T00:37:15.408Z,92.50
2017-08-15T00:39:43.003Z,92.70
2017-08-15T00:42:10.601Z,92.70
2017-08-15T00:44:38.978Z,92.60
2017-08-15T00:47:06.555Z,92.30
2017-08-15T00:49:34.920Z,92.40
2017-08-15T00:52:03.263Z,92.50
2017-08-15T00:54:31.218Z,92.50
2017-08-15T00:56:58.798Z,92.40
2017-08-15T00:59:26.361Z,92.40
2017-08-15T01:01:53.947Z,92.30
2017-08-15T01:04:22.281Z,92.30
2017-08-15T01:06:49.872Z,92.30
2017-08-15T01:09:17.451Z,92.50
2017-08-15T01:11:46.191Z,92.60
2017-08-15T01:14:13.782Z,92.90
2017-08-15T01:16:42.134Z,92.70
2017-08-15T01:19:09.723Z,92.60
2017-08-15T01:21:38.059Z,92.50
2017-08-15T01:24:05.892Z,92.50
2017-08-15T01:26:33.459Z,92.40
2017-08-15T01:29:01.022Z,92.40
2017-08-15T01:31:28.800Z,92.70
2017-08-15T01:33:56.371Z,92.60
2017-08-15T01:36:24.238Z,92.50
2017-08-15T01:38:51.800Z,92.40
2017-08-15T01:41:19.375Z,92.40
2017-08-15T01:43:47.003Z,92.40
2017-08-15T01:46:14.622Z,92.60
2017-08-15T01:48:43.266Z,92.50
2017-08-15T01:51:10.844Z,92.50
2017-08-15T01:53:38.428Z,92.50
2017-08-15T01:56:06.788Z,92.60
2017-08-15T01:58:34.367Z,92.50
2017-08-15T02:01:02.738Z,92.80
2017-08-15T02:03:31.061Z,92.50
2017-08-15T02:05:58.692Z,92.50
2017-08-15T02:08:26.296Z,92.50
2017-08-15T02:10:53.895Z,92.40
2017-08-15T02:13:22.247Z,92.60
2017-08-15T02:15:49.844Z,92.60
2017-08-15T02:18:17.435Z,92.60
2017-08-15T02:20:45.036Z,92.70
2017-08-15T02:23:12.609Z,92.60
2017-08-15T02:25:40.986Z,92.80
2017-08-15T02:28:09.428Z,92.80
2017-08-15T02:30:37.396Z,92.80
2017-08-15T02:33:04.975Z,92.80
2017-08-15T02:35:32.547Z,92.80
2017-08-15T02:38:00.231Z,92.60
2017-08-15T02:40:27.809Z,92.50
2017-08-15T02:42:55.386Z,92.70
2017-08-15T02:45:22.960Z,92.70
2017-08-15T02:47:50.851Z,92.50
2017-08-15T02:50:18.484Z,92.70
2017-08-15T02:52:46.059Z,92.30
2017-08-15T02:55:13.641Z,92.40
2017-08-15T02:57:41.224Z,92.40
2017-08-15T03:00:08.798Z,92.50
2017-08-15T03:02:36.372Z,92.20
2017-08-15T03:05:04.360Z,92.30
2017-08-15T03:07:31.987Z,92.40
2017-08-15T03:09:59.559Z,92.30
2017-08-15T03:12:27.157Z,92.70
2017-08-15T03:14:54.755Z,92.30
2017-08-15T03:17:22.348Z,92.30
2017-08-15T03:19:49.923Z,92.30
2017-08-15T03:22:17.757Z,92.60
2017-08-15T03:24:45.336Z,92.60
2017-08-15T03:27:12.899Z,92.50
2017-08-15T03:29:40.500Z,92.60
2017-08-15T03:32:08.848Z,92.60
2017-08-15T03:34:36.452Z,92.60
2017-08-15T03:37:04.020Z,92.60
2017-08-15T03:39:31.927Z,92.60
2017-08-15T03:41:59.523Z,92.30
2017-08-15T03:44:27.859Z,92.50
2017-08-15T03:46:55.450Z,92.40
2017-08-15T03:49:23.777Z,92.50
2017-08-15T03:51:51.367Z,92.50
2017-08-15T03:54:18.944Z,92.50
2017-08-15T03:56:47.559Z,92.60
2017-08-15T03:59:15.132Z,92.60
2017-08-15T04:01:42.702Z,92.50
2017-08-15T04:04:10.320Z,92.70
2017-08-15T04:06:38.669Z,93.10
2017-08-15T04:09:06.256Z,93.10
2017-08-15T04:11:33.851Z,92.80
2017-08-15T04:14:01.736Z,92.70
2017-08-15T04:16:29.313Z,92.70
2017-08-15T04:18:57.079Z,92.60
2017-08-15T04:21:24.684Z,92.60
2017-08-15T04:23:52.254Z,92.60
2017-08-15T04:26:19.834Z,92.80
2017-08-15T04:28:47.406Z,92.80
2017-08-15T04:31:15.256Z,92.60
2017-08-15T04:33:42.828Z,92.50
2017-08-15T04:36:10.407Z,92.50
2017-08-15T04:38:38.025Z,92.60
2017-08-15T04:41:05.589Z,92.40
2017-08-15T04:43:33.186Z,92.30
2017-08-15T04:46:00.761Z,92.20
2017-08-15T04:48:29.122Z,91.90
2017-08-15T04:50:56.755Z,91.90
2017-08-15T04:53:24.360Z,91.90
2017-08-15T04:55:52.682Z,91.70
2017-08-15T04:58:20.267Z,91.70
2017-08-15T05:00:47.848Z,91.40
2017-08-15T05:03:16.502Z,91.30
2017-08-15T05:05:44.075Z,91.00
2017-08-15T05:08:11.670Z,90.70
2017-08-15T05:10:39.319Z,90.50
2017-08-15T05:13:07.675Z,90.20
2017-08-15T05:15:35.287Z,90.10
2017-08-15T05:18:02.851Z,89.70
2017-08-15T05:20:30.447Z,89.10
2017-08-15T05:22:58.038Z,88.80
2017-08-15T05:25:26.426Z,86.50
2017-08-15T05:27:54.006Z,86.30
2017-08-15T05:30:21.900Z,85.90
2017-08-15T05:32:49.484Z,84.40
2017-08-15T05:35:17.059Z,82.30
2017-08-15T05:37:44.668Z,79.70
2017-08-15T05:40:12.249Z,77.50
2017-08-15T05:42:39.852Z,76.80
2017-08-15T05:45:07.423Z,74.80
2017-08-15T05:47:35.006Z,70.10
2017-08-15T05:50:02.588Z,67.10
2017-08-15T05:52:30.485Z,63.20
2017-08-15T05:54:58.839Z,58.30
2017-08-15T05:57:26.416Z,58.20
2017-08-15T05:59:54.839Z,55.10
2017-08-15T06:02:22.428Z,54.50
2017-08-15T06:04:50.024Z,53.00
2017-08-15T06:07:17.595Z,53.30
2017-08-15T06:09:45.227Z,51.10
2017-08-15T06:12:12.803Z,49.30
2017-08-15T06:14:41.157Z,48.80
2017-08-15T06:17:08.755Z,48.80
2017-08-15T06:19:36.343Z,47.70
2017-08-15T06:22:03.922Z,47.60
2017-08-15T06:24:31.516Z,48.10
2017-08-15T06:26:59.050Z,47.90
2017-08-15T06:29:26.622Z,47.20
2017-08-15T06:31:54.219Z,47.10
2017-08-15T06:34:21.774Z,46.70
2017-08-15T06:36:49.371Z,45.70
2017-08-15T06:39:16.952Z,45.20
2017-08-15T06:41:44.657Z,44.30
2017-08-15T06:44:12.233Z,41.90
2017-08-15T06:46:39.803Z,40.60
2017-08-15T06:49:07.385Z,39.70
2017-08-15T06:51:35.239Z,39.00
2017-08-15T06:54:02.876Z,38.10
2017-08-15T06:56:30.443Z,37.40
2017-08-15T06:58:58.092Z,36.70
2017-08-15T07:01:25.667Z,35.40
2017-08-15T07:03:53.268Z,35.20
2017-08-15T07:06:21.630Z,33.30
2017-08-15T07:08:49.229Z,33.20
2017-08-15T07:11:16.800Z,32.90
2017-08-15T07:13:44.418Z,32.20
2017-08-15T07:16:11.993Z,31.60
2017-08-15T07:18:39.628Z,30.90
2017-08-15T07:21:07.309Z,31.90
2017-08-15T07:23:34.894Z,30.00
2017-08-15T07:26:02.479Z,34.00
2017-08-15T07:28:30.046Z,33.00
2017-08-15T07:30:57.640Z,31.90
2017-08-15T07:33:25.216Z,32.90
2017-08-15T07:35:53.606Z,35.80
2017-08-15T07:38:21.191Z,35.60
2017-08-15T07:40:48.861Z,33.60
2017-08-15T07:43:16.426Z,34.40
2017-08-15T07:45:44.289Z,35.50
2017-08-15T07:48:11.902Z,35.60
2017-08-15T07:50:40.262Z,34.90
2017-08-15T07:53:07.860Z,34.80
2017-08-15T07:55:35.457Z,32.80
2017-08-15T07:58:03.092Z,34.60
2017-08-15T08:00:30.701Z,32.00
2017-08-15T08:02:58.309Z,32.90
2017-08-15T08:05:25.910Z,31.80
2017-08-15T08:07:53.767Z,30.80
2017-08-15T08:10:21.327Z,31.30
2017-08-15T08:12:48.896Z,31.60
2017-08-15T08:15:16.463Z,32.00
2017-08-15T08:17:44.046Z,34.10
2017-08-15T08:20:11.720Z,38.00
2017-08-15T08:22:39.348Z,39.70
2017-08-15T08:25:07.729Z,34.90
2017-08-15T08:27:35.303Z,34.20
2017-08-15T08:30:03.952Z,31.80
2017-08-15T08:32:31.555Z,31.70
2017-08-15T08:34:59.896Z,32.70
2017-08-15T08:37:27.481Z,32.70
2017-08-15T08:39:55.819Z,29.50
2017-08-15T08:42:23.424Z,29.50
2017-08-15T08:44:51.792Z,31.70
2017-08-15T08:47:20.271Z,34.80
2017-08-15T08:49:48.629Z,38.00
2017-08-15T08:52:16.241Z,38.00
2017-08-15T08:54:43.815Z,39.70
2017-08-15T08:57:11.677Z,40.30
2017-08-15T08:59:39.262Z,42.30
2017-08-15T09:02:06.848Z,43.30
2017-08-15T09:04:34.474Z,42.80
2017-08-15T09:07:02.050Z,44.20
2017-08-15T09:09:29.634Z,43.90
2017-08-15T09:11:57.252Z,44.10
2017-08-15T09:14:25.138Z,44.30
2017-08-15T09:16:52.742Z,43.40
2017-08-15T09:19:20.327Z,43.10
2017-08-15T09:21:47.935Z,43.50
2017-08-15T09:24:15.530Z,42.80
2017-08-15T09:26:43.432Z,39.50
2017-08-15T09:29:11.032Z,36.70
2017-08-15T09:31:39.399Z,35.00
2017-08-15T09:34:07.008Z,34.70
2017-08-15T09:36:34.915Z,36.80
2017-08-15T09:39:02.519Z,38.30
2017-08-15T09:41:30.113Z,38.60
2017-08-15T09:43:57.723Z,38.80
2017-08-15T09:46:26.061Z,40.70
2017-08-15T09:48:53.660Z,40.70
2017-08-15T09:51:21.995Z,42.10
2017-08-15T09:53:49.608Z,42.10
2017-08-15T09:56:17.208Z,41.50
2017-08-15T09:58:50.921Z,42.10
2017-08-15T10:01:18.524Z,43.10
2017-08-15T10:03:46.192Z,43.30
2017-08-15T10:06:13.799Z,43.70
2017-08-15T10:08:41.400Z,43.80
2017-08-15T10:11:09.780Z,45.10
2017-08-15T10:13:38.132Z,46.80
2017-08-15T10:16:05.751Z,46.80
2017-08-15T10:18:33.384Z,49.00
2017-08-15T10:21:00.990Z,50.60
2017-08-15T10:23:28.576Z,52.40
2017-08-15T10:25:56.532Z,52.90
2017-08-15T10:28:24.114Z,54.30
2017-08-15T10:30:51.697Z,58.40
2017-08-15T10:33:20.011Z,65.60
2017-08-15T10:35:48.344Z,89.30
2017-08-15T10:38:15.986Z,95.90
2017-08-15T10:40:43.587Z,97.50
2017-08-15T10:43:11.188Z,97.70
2017-08-15T10:45:38.775Z,97.80
2017-08-15T10:48:07.283Z,97.90
2017-08-15T10:50:34.902Z,97.90
2017-08-15T10:53:02.860Z,97.70
2017-08-15T10:55:30.473Z,98.50
2017-08-15T10:57:58.056Z,98.50
2017-08-15T11:00:25.644Z,98.30
2017-08-15T11:02:53.297Z,98.00
2017-08-15T11:05:20.917Z,97.20
2017-08-15T11:07:48.528Z,96.80
2017-08-15T11:10:16.131Z,96.40
2017-08-15T11:12:43.741Z,95.80
2017-08-15T11:15:11.377Z,95.50
2017-08-15T11:17:38.976Z,95.60
2017-08-15T11:20:06.635Z,95.20
2017-08-15T11:22:34.242Z,94.10
2017-08-15T11:25:01.857Z,93.70
2017-08-15T11:27:29.445Z,93.00
2017-08-15T11:29:57.059Z,93.60
2017-08-15T11:32:24.647Z,92.30
2017-08-15T11:34:53.324Z,90.60
2017-08-15T11:37:20.953Z,90.60
2017-08-15T11:39:48.568Z,90.60
2017-08-15T11:42:16.262Z,90.90
2017-08-15T11:44:43.848Z,90.80
2017-08-15T11:47:12.065Z,91.60
2017-08-15T11:49:39.643Z,92.00
2017-08-15T11:52:07.555Z,91.80
2017-08-15T11:54:35.156Z,91.50
2017-08-15T11:57:02.755Z,91.60
2017-08-15T11:59:30.360Z,92.00
2017-08-15T12:01:58.700Z,91.60
2017-08-15T12:04:26.352Z,91.20
2017-08-15T12:06:53.954Z,91.60
2017-08-15T12:09:22.392Z,90.90
2017-08-15T12:11:50.032Z,90.70
2017-08-15T12:14:17.950Z,90.20
2017-08-15T12:16:45.541Z,90.70
2017-08-15T12:19:13.129Z,89.80
2017-08-15T12:21:40.816Z,88.30
2017-08-15T12:24:08.456Z,83.90
2017-08-15T12:26:36.094Z,80.60
2017-08-15T12:29:03.684Z,76.60
2017-08-15T12:31:31.816Z,73.80
2017-08-15T12:33:59.403Z,72.50
2017-08-15T12:36:26.970Z,72.20
2017-08-15T12:38:54.595Z,72.30
2017-08-15T12:41:22.204Z,73.00
2017-08-15T12:43:49.843Z,73.70
2017-08-15T12:46:17.444Z,75.60
2017-08-15T12:48:45.424Z,76.00
2017-08-15T12:51:13.840Z,76.10
2017-08-15T12:53:41.536Z,76.60
2017-08-15T12:56:09.199Z,76.90
2017-08-15T12:58:36.796Z,77.10
2017-08-15T13:01:05.520Z,77.40
2017-08-15T13:03:33.110Z,77.40
2017-08-15T13:06:00.701Z,76.60
2017-08-15T13:08:29.089Z,75.90
2017-08-15T13:10:56.689Z,75.70
2017-08-15T13:13:24.556Z,74.40
2017-08-15T13:15:53.792Z,74.90
2017-08-15T13:18:21.405Z,74.00
2017-08-15T13:20:49.040Z,74.00
2017-08-15T13:23:16.715Z,74.90
2017-08-15T13:25:44.332Z,75.20
2017-08-15T13:28:11.972Z,76.20
2017-08-15T13:30:39.592Z,76.70
2017-08-15T13:33:07.190Z,77.00
2017-08-15T13:35:35.293Z,76.50
2017-08-15T13:38:03.646Z,76.30
2017-08-15T13:40:31.249Z,76.10
2017-08-15T13:42:58.905Z,75.00
2017-08-15T13:45:27.251Z,71.50
2017-08-15T13:47:54.874Z,71.50
2017-08-15T13:50:22.489Z,70.30
2017-08-15T13:52:50.430Z,69.40
2017-08-15T13:55:18.019Z,67.80
2017-08-15T13:57:45.674Z,67.30
2017-08-15T14:00:13.298Z,67.60
2017-08-15T14:02:40.919Z,68.00
2017-08-15T14:05:08.562Z,67.60
2017-08-15T14:07:36.148Z,65.80
2017-08-15T14:10:03.777Z,64.30
2017-08-15T14:12:31.380Z,64.60
2017-08-15T14:14:59.038Z,63.40
2017-08-15T14:17:26.666Z,65.00
2017-08-15T14:19:55.579Z,65.60
2017-08-15T14:22:23.378Z,65.10
2017-08-15T14:24:51.068Z,64.40
2017-08-15T14:27:18.661Z,62.90
2017-08-15T14:29:46.251Z,63.40
2017-08-15T14:32:13.876Z,63.70
2017-08-15T14:34:42.238Z,63.70
2017-08-15T14:37:10.609Z,64.60
2017-08-15T14:39:38.224Z,64.50
2017-08-15T14:42:06.127Z,64.70
2017-08-15T14:44:33.750Z,64.40
2017-08-15T14:47:01.392Z,64.60
2017-08-15T14:49:29.002Z,64.20
2017-08-15T14:51:56.637Z,64.50
2017-08-15T14:54:24.258Z,63.50
2017-08-15T14:56:51.854Z,62.90
2017-08-15T14:59:19.489Z,63.70
2017-08-15T15:01:47.082Z,63.90
2017-08-15T15:04:14.680Z,65.00
2017-08-15T15:06:43.046Z,67.60
2017-08-15T15:09:11.022Z,67.50
2017-08-15T15:11:38.577Z,67.30
2017-08-15T15:14:06.196Z,67.70
2017-08-15T15:16:33.802Z,68.20
2017-08-15T15:19:01.390Z,68.70
2017-08-15T15:21:29.311Z,69.10
2017-08-15T15:23:56.892Z,69.20
2017-08-15T15:26:24.453Z,70.40
2017-08-15T15:28:52.060Z,71.80
2017-08-15T15:31:19.645Z,70.80
2017-08-15T15:33:47.649Z,71.20
2017-08-15T15:36:16.033Z,72.70
2017-08-15T15:38:43.625Z,72.70
2017-08-15T15:41:12.093Z,72.50
2017-08-15T15:43:39.686Z,72.00
2017-08-15T15:46:07.448Z,72.60
2017-08-15T15:48:35.027Z,72.60
2017-08-15T15:51:02.946Z,72.90
2017-08-15T15:53:30.535Z,72.60
2017-08-15T15:55:58.152Z,73.50
2017-08-15T15:58:25.745Z,72.40
2017-08-15T16:00:55.291Z,72.20
2017-08-15T16:03:22.886Z,72.80
2017-08-15T16:05:50.472Z,74.20
2017-08-15T16:08:18.369Z,74.30
2017-08-15T16:10:45.971Z,74.20
2017-08-15T16:13:13.573Z,74.70
2017-08-15T16:15:41.175Z,75.00
2017-08-15T16:18:10.959Z,74.60
2017-08-15T16:20:39.083Z,74.60
2017-08-15T16:23:06.859Z,73.70
2017-08-15T16:25:34.472Z,73.10
2017-08-15T16:28:02.083Z,72.40
2017-08-15T16:30:29.672Z,71.80
2017-08-15T16:32:57.685Z,71.50
2017-08-15T16:35:25.315Z,72.30
2017-08-15T16:37:52.892Z,72.50
2017-08-15T16:40:23.564Z,72.90
2017-08-15T16:42:51.205Z,72.90
2017-08-15T16:45:18.835Z,72.70
2017-08-15T16:47:46.601Z,73.10
2017-08-15T16:50:14.957Z,72.90
2017-08-15T16:52:44.250Z,72.80
2017-08-15T16:55:11.909Z,72.70
2017-08-15T16:57:39.905Z,72.30
2017-08-15T17:00:07.528Z,73.40
2017-08-15T17:05:15.151Z,73.90
2017-08-15T17:07:42.752Z,74.60
2017-08-15T17:10:11.186Z,74.10
2017-08-15T17:12:39.699Z,74.10
2017-08-15T17:15:07.657Z,74.20
2017-08-15T17:17:35.248Z,73.90
2017-08-15T17:20:03.652Z,74.50
2017-08-15T17:22:31.291Z,74.50
2017-08-15T17:24:58.981Z,74.00
2017-08-15T17:27:26.994Z,73.90
2017-08-15T17:29:54.588Z,74.50
2017-08-15T17:32:22.233Z,75.00
2017-08-15T17:34:49.853Z,74.70
2017-08-15T17:37:18.700Z,74.70
2017-08-15T17:39:46.354Z,75.10
2017-08-15T17:42:14.111Z,74.50
2017-08-15T17:44:42.494Z,75.20
2017-08-15T17:47:10.920Z,75.50
2017-08-15T17:49:38.512Z,75.40
2017-08-15T17:52:06.556Z,76.20
2017-08-15T17:54:34.263Z,76.70
2017-08-15T17:57:02.630Z,77.60
2017-08-15T17:59:32.514Z,78.10
2017-08-15T18:02:00.871Z,78.00
2017-08-15T18:04:28.977Z,78.00
2017-08-15T18:06:56.605Z,78.10
2017-08-15T18:09:24.235Z,78.50
2017-08-15T18:11:51.894Z,78.70
2017-08-15T18:14:19.513Z,79.20
2017-08-15T18:16:47.139Z,79.80
2017-08-15T18:19:14.708Z,80.00
2017-08-15T18:21:42.607Z,79.80
2017-08-15T18:24:10.212Z,80.50
2017-08-15T18:26:37.819Z,80.70
2017-08-15T18:29:05.441Z,80.60
2017-08-15T18:31:32.996Z,80.50
2017-08-15T18:34:00.900Z,80.80
2017-08-15T18:36:29.753Z,81.10
2017-08-15T18:38:57.600Z,81.10
2017-08-15T18:41:25.178Z,81.40
2017-08-15T18:43:52.767Z,81.90
2017-08-15T18:46:20.379Z,83.30
2017-08-15T18:48:49.608Z,83.20
2017-08-15T18:51:17.224Z,83.20
2017-08-15T18:53:45.836Z,83.90
2017-08-15T18:56:13.858Z,83.90
2017-08-15T18:58:41.640Z,84.60
2017-08-15T19:01:09.971Z,84.40
2017-08-15T19:03:37.758Z,84.40
2017-08-15T19:06:05.392Z,84.40
2017-08-15T19:08:33.036Z,83.90
2017-08-15T19:11:00.631Z,84.40
2017-08-15T19:13:28.512Z,84.60
2017-08-15T19:15:56.125Z,85.40
2017-08-15T19:18:23.795Z,87.00
2017-08-15T19:20:51.476Z,84.10
2017-08-15T19:23:19.109Z,83.20
2017-08-15T19:25:46.763Z,82.70
2017-08-15T19:28:14.367Z,81.60
2017-08-15T19:30:42.255Z,81.00
2017-08-15T19:33:09.869Z,81.50
2017-08-15T19:35:37.532Z,78.00
2017-08-15T19:38:05.232Z,76.90
2017-08-15T19:40:33.817Z,76.00
2017-08-15T19:43:01.444Z,76.50
2017-08-15T19:45:29.058Z,75.30
2017-08-15T19:47:57.693Z,76.00
2017-08-15T19:50:25.354Z,76.00
2017-08-15T19:52:53.131Z,76.90
2017-08-15T19:55:20.839Z,77.50
2017-08-15T19:57:48.477Z,77.90
2017-08-15T20:00:18.038Z,78.90
2017-08-15T20:02:45.680Z,79.40
2017-08-15T20:05:13.274Z,78.50
2017-08-15T20:07:46.701Z,79.70
2017-08-15T20:10:18.513Z,80.40
2017-08-15T20:12:47.095Z,80.20
2017-08-15T20:15:14.695Z,80.10
2017-08-15T20:17:42.550Z,81.30
2017-08-15T20:20:10.199Z,81.50
2017-08-15T20:22:37.863Z,82.00
2017-08-15T20:25:05.725Z,81.80
2017-08-15T20:27:37.515Z,83.40
2017-08-15T20:30:05.557Z,83.60
2017-08-15T20:32:33.158Z,83.90
2017-08-15T20:35:01.541Z,84.40
2017-08-15T20:37:29.952Z,83.40
2017-08-15T20:39:58.467Z,83.40
2017-08-15T20:42:26.324Z,83.90
2017-08-15T20:44:53.909Z,85.50
2017-08-15T20:47:21.510Z,87.20
2017-08-15T20:49:49.121Z,88.40
2017-08-15T20:52:16.717Z,88.00
2017-08-15T20:54:44.343Z,88.00
2017-08-15T20:57:12.037Z,88.40
2017-08-15T20:59:39.951Z,88.00
2017-08-15T21:02:07.537Z,88.80
2017-08-15T21:04:35.108Z,88.00
2017-08-15T21:07:03.503Z,86.50
2017-08-15T21:09:31.159Z,86.50
2017-08-15T21:11:58.769Z,87.40
2017-08-15T21:14:26.349Z,87.50
2017-08-15T21:16:54.676Z,88.40
2017-08-15T21:19:22.274Z,88.30
2017-08-15T21:21:49.971Z,90.20
2017-08-15T21:24:18.179Z,90.10
2017-08-15T21:26:46.081Z,89.00
2017-08-15T21:29:13.764Z,89.00
2017-08-15T21:31:42.114Z,88.80
2017-08-15T21:34:10.093Z,88.00
2017-08-15T21:36:37.724Z,88.90
2017-08-15T21:39:05.339Z,89.70
2017-08-15T21:41:33.724Z,89.90
2017-08-15T21:44:02.101Z,90.20
2017-08-15T21:46:29.690Z,90.20
2017-08-15T21:48:57.262Z,90.00
2017-08-15T21:51:25.369Z,90.20
2017-08-15T21:53:52.987Z,90.70
2017-08-15T21:56:20.630Z,90.00
2017-08-15T21:58:48.260Z,90.30
2017-08-15T22:01:21.680Z,90.90
2017-08-15T22:03:49.283Z,91.40
2017-08-15T22:06:16.887Z,91.40
2017-08-15T22:08:45.264Z,91.60
2017-08-15T22:11:13.616Z,91.90
2017-08-15T22:13:41.519Z,91.80
2017-08-15T22:16:10.645Z,92.10
2017-08-15T22:18:38.229Z,92.10
2017-08-15T22:21:05.860Z,92.00
2017-08-15T22:23:33.441Z,92.10
2017-08-15T22:26:01.071Z,91.90
2017-08-15T22:28:28.632Z,92.10
2017-08-15T22:30:56.470Z,92.30
2017-08-15T22:33:24.821Z,92.60
2017-08-15T22:35:52.412Z,92.60
2017-08-15T22:38:20.776Z,92.70
2017-08-15T22:40:51.723Z,92.70
2017-08-15T22:43:20.102Z,92.60
2017-08-15T22:45:48.463Z,92.60
2017-08-15T22:48:16.431Z,92.60
2017-08-15T22:50:44.011Z,92.40
2017-08-15T22:53:12.355Z,92.40
2017-08-15T22:55:40.082Z,92.30
2017-08-15T22:58:07.753Z,92.30
2017-08-15T23:00:35.364Z,92.50
2017-08-15T23:03:02.971Z,92.70
2017-08-15T23:05:30.864Z,92.70
2017-08-15T23:07:58.419Z,92.90
2017-08-15T23:10:26.078Z,93.10
2017-08-15T23:12:53.689Z,93.20
2017-08-15T23:15:21.285Z,93.10
2017-08-15T23:17:49.006Z,93.20
2017-08-15T23:20:17.343Z,93.50
2017-08-15T23:22:45.268Z,93.40
2017-08-15T23:25:12.839Z,93.50
2017-08-15T23:27:40.415Z,93.50
2017-08-15T23:30:08.024Z,93.60
2017-08-15T23:32:36.392Z,93.40
2017-08-15T23:35:03.988Z,93.40
2017-08-15T23:37:31.559Z,93.40
2017-08-15T23:39:59.452Z,93.60
2017-08-15T23:42:27.024Z,93.30
2017-08-15T23:44:54.600Z,93.30
2017-08-15T23:47:22.970Z,93.40
2017-08-15T23:49:50.539Z,93.30
2017-08-15T23:52:18.931Z,93.70
2017-08-15T23:54:47.301Z,94.00
2017-08-15T23:57:15.944Z,94.00
2017-08-15T23:59:43.514Z,93.90
